Time,TemperatureF,DewpointF,PressureIn,WindDirection,WindDirectionDegrees,WindSpeedMPH,WindSpeedGustMPH,Humidity,HourlyPrecipIn,Conditions,Clouds,dailyrainin,SoftwareType,DateUTC
2013-09-23 00:08:00,52.5,52.2,29.74,West,270,0.0,-999.0,99,-99.99,,,0.00,Acu-Link.com,2013-09-23 04:08:00,
2013-09-23 00:23:00,52.2,51.9,29.73,West,270,0.0,-999.0,99,-99.99,,,0.00,Acu-Link.com,2013-09-23 04:23:00,
2013-09-23 00:38:00,51.8,51.5,29.74,West,270,0.0,-999.0,99,-99.99,,,0.00,Acu-Link.com,2013-09-23 04:38:00,
2013-09-23 00:53:00,51.6,51.3,29.73,West,270,0.0,-999.0,99,-99.99,,,0.00,Acu-Link.com,2013-09-23 04:53:00,
2013-09-23 01:08:00,51.3,51.0,29.74,West,270,0.0,-999.0,99,-99.99,,,0.00,Acu-Link.com,2013-09-23 05:08:00,
2013-09-23 01:23:00,50.9,50.6,29.74,West,270,0.0,-999.0,99,-99.99,,,0.00,Acu-Link.com,2013-09-23 05:23:00,
2013-09-23 01:38:00,50.5,50.2,29.74,West,270,0.0,-999.0,99,-99.99,,,0.00,Acu-Link.com,2013-09-23 05:38:00,
2013-09-23 01:54:00,50.4,50.1,29.74,West,270,0.0,-999.0,99,-99.99,,,0.00,Acu-Link.com,2013-09-23 05:54:00,
2013-09-23 02:09:00,50.0,49.7,29.75,West,270,0.0,-999.0,99,-99.99,,,0.00,Acu-Link.com,2013-09-23 06:09:00,
2013-09-23 02:24:00,49.8,49.5,29.75,West,270,0.0,-999.0,99,-99.99,,,0.00,Acu-Link.com,2013-09-23 06:24:00,
2013-09-23 02:39:00,49.5,49.2,29.75,West,270,0.0,-999.0,99,-99.99,,,0.00,Acu-Link.com,2013-09-23 06:39:00,
2013-09-23 02:54:00,49.1,48.8,29.75,West,270,0.0,-999.0,99,-99.99,,,0.00,Acu-Link.com,2013-09-23 06:54:00,
2013-09-23 03:09:00,49.1,48.8,29.74,West,270,0.0,-999.0,99,-99.99,,,0.00,Acu-Link.com,2013-09-23 07:09:00,
2013-09-23 03:24:00,48.7,48.4,29.75,West,270,0.0,-999.0,99,-99.99,,,0.00,Acu-Link.com,2013-09-23 07:24:00,
2013-09-23 03:39:00,48.9,48.6,29.75,West,270,0.0,-999.0,99,-99.99,,,0.00,Acu-Link.com,2013-09-23 07:39:00,
2013-09-23 03:54:00,48.7,48.4,29.75,West,270,0.0,-999.0,99,-99.99,,,0.00,Acu-Link.com,2013-09-23 07:54:00,
2013-09-23 04:11:00,48.7,48.4,29.75,West,270,0.0,-999.0,99,-99.99,,,0.00,Acu-Link.com,2013-09-23 08:11:00,
2013-09-23 04:26:00,48.4,48.1,29.76,West,270,0.0,-999.0,99,-99.99,,,0.00,Acu-Link.com,2013-09-23 08:26:00,
2013-09-23 04:41:00,48.2,47.9,29.75,West,270,0.0,-999.0,99,-99.99,,,0.00,Acu-Link.com,2013-09-23 08:41:00,
2013-09-23 04:56:00,48.2,47.9,29.76,West,270,0.0,-999.0,99,-99.99,,,0.00,Acu-Link.com,2013-09-23 08:56:00,
2013-09-23 05:11:00,48.2,47.9,29.76,West,270,0.0,-999.0,99,-99.99,,,0.00,Acu-Link.com,2013-09-23 09:11:00,
2013-09-23 05:26:00,48.2,47.9,29.77,West,270,0.0,-999.0,99,-99.99,,,0.00,Acu-Link.com,2013-09-23 09:26:00,
2013-09-23 05:42:00,47.8,47.5,29.77,West,270,0.0,-999.0,99,-99.99,,,0.00,Acu-Link.com,2013-09-23 09:42:00,
2013-09-23 05:57:00,47.7,47.4,29.78,West,270,0.0,-999.0,99,-99.99,,,0.00,Acu-Link.com,2013-09-23 09:57:00,
2013-09-23 06:12:00,47.8,47.5,29.78,West,270,0.0,-999.0,99,-99.99,,,0.00,Acu-Link.com,2013-09-23 10:12:00,
2013-09-23 06:27:00,47.7,47.4,29.79,West,270,0.0,-999.0,99,-99.99,,,0.00,Acu-Link.com,2013-09-23 10:27:00,
2013-09-23 06:42:00,47.7,47.4,29.79,West,270,0.0,-999.0,99,-99.99,,,0.00,Acu-Link.com,2013-09-23 10:42:00,
2013-09-23 06:57:00,47.5,47.2,29.80,West,270,0.0,-999.0,99,-99.99,,,0.00,Acu-Link.com,2013-09-23 10:57:00,
2013-09-23 07:12:00,47.8,47.5,29.80,West,270,0.0,-999.0,99,-99.99,,,0.00,Acu-Link.com,2013-09-23 11:12:00,
2013-09-23 07:27:00,47.7,47.4,29.81,West,270,0.0,-999.0,99,-99.99,,,0.00,Acu-Link.com,2013-09-23 11:27:00,
2013-09-23 07:43:00,47.5,47.2,29.82,West,270,0.0,-999.0,99,-99.99,,,0.00,Acu-Link.com,2013-09-23 11:43:00,
2013-09-23 07:58:00,48.6,48.3,29.83,West,270,0.0,-999.0,99,-99.99,,,0.00,Acu-Link.com,2013-09-23 11:58:00,
2013-09-23 08:13:00,52.7,52.2,29.82,WSW,247,0.0,-999.0,98,-99.99,,,0.00,Acu-Link.com,2013-09-23 12:13:00,
2013-09-23 08:28:00,55.4,54.0,29.82,SSW,202,0.0,-999.0,95,-99.99,,,0.00,Acu-Link.com,2013-09-23 12:28:00,
2013-09-23 08:43:00,60.1,58.7,29.82,ESE,112,1.1,-999.0,95,-99.99,,,0.00,Acu-Link.com,2013-09-23 12:43:00,
2013-09-23 08:58:00,62.1,57.9,29.82,SW,225,0.0,-999.0,86,-99.99,,,0.00,Acu-Link.com,2013-09-23 12:58:00,
2013-09-23 09:14:00,66.0,58.2,29.82,South,180,2.2,-999.0,76,-99.99,,,0.00,Acu-Link.com,2013-09-23 13:14:00,
2013-09-23 09:29:00,68.7,58.1,29.80,East,90,2.2,-999.0,69,-99.99,,,0.00,Acu-Link.com,2013-09-23 13:29:00,
2013-09-23 09:44:00,68.9,57.5,29.81,East,90,3.2,-999.0,67,-99.99,,,0.00,Acu-Link.com,2013-09-23 13:44:00,
2013-09-23 09:59:00,70.3,58.4,29.80,ESE,112,2.2,-999.0,66,-99.99,,,0.00,Acu-Link.com,2013-09-23 13:59:00,
2013-09-23 10:14:00,70.0,58.1,29.79,SSE,157,1.7,-999.0,66,-99.99,,,0.00,Acu-Link.com,2013-09-23 14:14:00,
2013-09-23 10:29:00,72.3,58.5,29.79,ESE,112,4.7,-999.0,62,-99.99,,,0.00,Acu-Link.com,2013-09-23 14:29:00,
2013-09-23 10:45:00,73.0,59.2,29.79,East,90,4.7,-999.0,62,-99.99,,,0.00,Acu-Link.com,2013-09-23 14:45:00,
2013-09-23 11:00:00,75.0,59.2,29.80,ENE,67,4.2,-999.0,58,-99.99,,,0.00,Acu-Link.com,2013-09-23 15:00:00,
2013-09-23 11:15:00,76.1,59.2,29.78,ENE,67,6.3,-999.0,56,-99.99,,,0.00,Acu-Link.com,2013-09-23 15:15:00,
2013-09-23 11:30:00,77.4,58.9,29.78,NNE,22,1.1,-999.0,53,-99.99,,,0.00,Acu-Link.com,2013-09-23 15:30:00,
2013-09-23 11:45:00,77.5,59.5,29.78,NW,315,3.2,-999.0,54,-99.99,,,0.00,Acu-Link.com,2013-09-23 15:45:00,
2013-09-23 12:00:00,77.5,59.5,29.78,South,180,2.2,-999.0,54,-99.99,,,0.01,Acu-Link.com,2013-09-23 16:00:00,
2013-09-23 12:15:00,78.8,59.7,29.78,NNW,337,3.7,-999.0,52,-99.99,,,0.01,Acu-Link.com,2013-09-23 16:15:00,
2013-09-23 12:31:00,80.6,60.8,29.79,NNE,22,3.7,-999.0,51,-99.99,,,0.01,Acu-Link.com,2013-09-23 16:31:00,
2013-09-23 12:47:00,80.4,59.5,29.78,WSW,247,2.7,-999.0,49,-99.99,,,0.01,Acu-Link.com,2013-09-23 16:47:00,
2013-09-23 13:03:00,82.4,59.5,29.77,NNE,22,3.7,-999.0,46,-99.99,,,0.01,Acu-Link.com,2013-09-23 17:03:00,
2013-09-23 13:19:00,82.9,60.6,29.76,East,90,1.7,-999.0,47,-99.99,,,0.01,Acu-Link.com,2013-09-23 17:19:00,
2013-09-23 13:34:00,84.2,62.4,29.76,ESE,112,0.0,-999.0,48,-99.99,,,0.01,Acu-Link.com,2013-09-23 17:34:00,
2013-09-23 13:49:00,86.5,60.6,29.75,ESE,112,2.7,-999.0,42,-99.99,,,0.01,Acu-Link.com,2013-09-23 17:49:00,
2013-09-23 14:05:00,84.7,61.0,29.74,SSE,157,4.2,-999.0,45,-99.99,,,0.01,Acu-Link.com,2013-09-23 18:05:00,
2013-09-23 14:35:00,87.6,62.3,29.74,SE,135,2.2,-999.0,43,-99.99,,,0.01,Acu-Link.com,2013-09-23 18:35:00,
2013-09-23 14:50:00,88.2,63.5,29.73,WSW,247,1.7,-999.0,44,-99.99,,,0.01,Acu-Link.com,2013-09-23 18:50:00,
2013-09-23 15:06:00,86.9,61.7,29.73,NNE,22,0.0,-999.0,43,-99.99,,,0.01,Acu-Link.com,2013-09-23 19:06:00,
2013-09-23 15:22:00,89.1,61.6,29.74,WNW,292,0.0,-999.0,40,-99.99,,,0.01,Acu-Link.com,2013-09-23 19:22:00,
2013-09-23 15:37:00,87.4,60.1,29.73,South,180,0.0,-999.0,40,-99.99,,,0.01,Acu-Link.com,2013-09-23 19:37:00,
2013-09-23 15:53:00,89.4,61.1,29.72,NNW,337,2.2,-999.0,39,-99.99,,,0.01,Acu-Link.com,2013-09-23 19:53:00,
2013-09-23 16:08:00,90.1,61.8,29.73,SW,225,2.2,-999.0,39,-99.99,,,0.01,Acu-Link.com,2013-09-23 20:08:00,
2013-09-23 16:23:00,88.2,60.8,29.72,SSE,157,0.0,-999.0,40,-99.99,,,0.01,Acu-Link.com,2013-09-23 20:23:00,
2013-09-23 16:39:00,85.8,62.0,29.73,East,90,2.2,-999.0,45,-99.99,,,0.01,Acu-Link.com,2013-09-23 20:39:00,
2013-09-23 16:54:00,87.1,61.2,29.71,NE,45,2.7,-999.0,42,-99.99,,,0.01,Acu-Link.com,2013-09-23 20:54:00,
2013-09-23 17:10:00,86.7,62.8,29.74,SE,135,2.2,-999.0,45,-99.99,,,0.01,Acu-Link.com,2013-09-23 21:10:00,
2013-09-23 17:25:00,86.4,61.9,29.72,NNE,22,1.1,-999.0,44,-99.99,,,0.01,Acu-Link.com,2013-09-23 21:25:00,
2013-09-23 17:59:00,86.9,61.7,29.74,WNW,292,1.7,-999.0,43,-99.99,,,0.01,Acu-Link.com,2013-09-23 21:59:00,
2013-09-23 18:15:00,79.0,60.4,29.73,SW,225,0.0,-999.0,53,-99.99,,,0.01,Acu-Link.com,2013-09-23 22:15:00,
2013-09-23 18:31:00,76.6,62.1,29.75,West,270,0.0,-999.0,61,-99.99,,,0.01,Acu-Link.com,2013-09-23 22:31:00,
2013-09-23 18:46:00,73.4,62.2,29.73,WSW,247,1.1,-999.0,68,-99.99,,,0.01,Acu-Link.com,2013-09-23 22:46:00,
2013-09-23 19:01:00,71.8,62.7,29.74,WSW,247,1.7,-999.0,73,-99.99,,,0.01,Acu-Link.com,2013-09-23 23:01:00,
2013-09-23 19:16:00,68.9,63.2,29.75,WNW,292,1.7,-999.0,82,-99.99,,,0.01,Acu-Link.com,2013-09-23 23:16:00,
2013-09-23 19:31:00,67.5,63.2,29.76,WNW,292,1.1,-999.0,86,-99.99,,,0.01,Acu-Link.com,2013-09-23 23:31:00,
2013-09-23 19:47:00,66.2,62.2,29.75,West,270,0.0,-999.0,87,-99.99,,,0.01,Acu-Link.com,2013-09-23 23:47:00,
2013-09-23 20:02:00,64.9,61.6,29.75,West,270,0.0,-999.0,89,-99.99,,,0.01,Acu-Link.com,2013-09-24 00:02:00,
2013-09-23 20:17:00,63.9,61.5,29.75,West,270,0.0,-999.0,92,-99.99,,,0.01,Acu-Link.com,2013-09-24 00:17:00,
2013-09-23 20:32:00,63.1,60.7,29.77,West,270,0.0,-999.0,92,-99.99,,,0.01,Acu-Link.com,2013-09-24 00:32:00,
2013-09-23 20:47:00,62.4,60.6,29.76,WSW,247,0.0,-999.0,94,-99.99,,,0.01,Acu-Link.com,2013-09-24 00:47:00,
2013-09-23 21:02:00,61.7,60.0,29.77,WSW,247,0.0,-999.0,94,-99.99,,,0.01,Acu-Link.com,2013-09-24 01:02:00,
2013-09-23 21:18:00,61.2,59.8,29.77,West,270,0.0,-999.0,95,-99.99,,,0.01,Acu-Link.com,2013-09-24 01:18:00,
2013-09-23 21:33:00,60.4,59.5,29.77,WSW,247,0.0,-999.0,97,-99.99,,,0.01,Acu-Link.com,2013-09-24 01:33:00,
2013-09-23 21:48:00,60.1,59.2,29.77,West,270,0.0,-999.0,97,-99.99,,,0.01,Acu-Link.com,2013-09-24 01:48:00,
2013-09-23 22:03:00,59.7,59.4,29.78,WSW,247,0.0,-999.0,99,-99.99,,,0.01,Acu-Link.com,2013-09-24 02:03:00,
2013-09-23 22:18:00,59.2,58.9,29.79,WSW,247,0.0,-999.0,99,-99.99,,,0.01,Acu-Link.com,2013-09-24 02:18:00,
2013-09-23 22:33:00,58.6,58.3,29.79,West,270,0.0,-999.0,99,-99.99,,,0.01,Acu-Link.com,2013-09-24 02:33:00,
2013-09-23 22:49:00,58.3,58.0,29.80,WSW,247,0.0,-999.0,99,-99.99,,,0.01,Acu-Link.com,2013-09-24 02:49:00,
2013-09-23 23:04:00,58.1,57.8,29.80,WSW,247,0.0,-999.0,99,-99.99,,,0.01,Acu-Link.com,2013-09-24 03:04:00,
2013-09-23 23:19:00,57.6,57.3,29.80,WSW,247,0.0,-999.0,99,-99.99,,,0.01,Acu-Link.com,2013-09-24 03:19:00,
2013-09-23 23:34:00,57.6,57.3,29.80,SW,225,0.0,-999.0,99,-99.99,,,0.01,Acu-Link.com,2013-09-24 03:34:00,
2013-09-23 23:49:00,57.0,56.7,29.81,WSW,247,0.0,-999.0,99,-99.99,,,0.01,Acu-Link.com,2013-09-24 03:49:00,